Time;durP1;ratioP1;P1;durP2;ratioP2;P2;SDS_P1;SDS_P2;PMS_P1;PMS_P2;Temp;Humidity;BMP_temperature;BMP_pressure;BME280_temperature;BME280_humidity;BME280_pressure;Samples;Min_cycle;Max_cycle;Signal;HPM_P1;HPM_P2
2024/03/30 00:01:56;;;;;;;3.07;1.10;;;;;;;11.12;100.00;99620.91;5053182;28;20466;-70
2024/03/30 00:04:24;;;;;;;3.30;1.03;;;;;;;11.09;100.00;99625.06;5054107;28;20993;-70
2024/03/30 00:06:49;;;;;;;2.53;0.87;;;;;;;11.06;100.00;99628.41;5054133;28;20232;-69
2024/03/30 00:09:16;;;;;;;3.37;1.13;;;;;;;11.07;100.00;99632.75;5053295;28;20530;-69
2024/03/30 00:11:42;;;;;;;2.70;0.90;;;;;;;11.09;100.00;99626.97;5053936;28;20644;-69
2024/03/30 00:14:09;;;;;;;3.00;1.00;;;;;;;11.09;100.00;99626.97;5054259;28;20550;-69
2024/03/30 00:16:34;;;;;;;4.17;1.13;;;;;;;11.04;100.00;99629.88;5053214;28;20729;-69
2024/03/30 00:19:02;;;;;;;2.63;0.60;;;;;;;11.01;100.00;99625.09;5053697;28;20525;-69
2024/03/30 00:21:29;;;;;;;2.90;1.10;;;;;;;11.05;100.00;99631.47;5053393;28;20385;-69
2024/03/30 00:23:56;;;;;;;3.67;1.10;;;;;;;11.06;100.00;99614.06;5053697;28;20466;-72
2024/03/30 00:26:21;;;;;;;3.27;1.20;;;;;;;11.11;100.00;99622.84;5053415;28;20482;-70
2024/03/30 00:28:48;;;;;;;3.37;1.47;;;;;;;11.16;100.00;99619.13;5053112;28;20557;-70
2024/03/30 00:31:13;;;;;;;2.47;0.80;;;;;;;11.15;100.00;99625.66;5053309;28;20590;-70
2024/03/30 00:33:40;;;;;;;3.20;0.90;;;;;;;11.12;100.00;99623.63;5053181;28;20542;-70
2024/03/30 00:36:06;;;;;;;3.40;1.30;;;;;;;11.08;100.00;99623.47;5053396;28;20682;-70
2024/03/30 00:38:35;;;;;;;2.60;0.90;;;;;;;11.06;100.00;99611.38;5053147;28;20521;-70
2024/03/30 00:41:01;;;;;;;3.27;1.17;;;;;;;11.04;100.00;99603.56;5052836;28;20438;-70
2024/03/30 00:43:28;;;;;;;2.37;0.77;;;;;;;11.02;100.00;99595.00;5053592;28;20472;-70
2024/03/30 00:45:54;;;;;;;2.47;0.80;;;;;;;11.00;100.00;99597.22;5053496;28;20227;-71
2024/03/30 00:48:21;;;;;;;3.43;1.47;;;;;;;10.98;100.00;99587.81;5053575;28;20442;-70
2024/03/30 00:50:46;;;;;;;3.30;1.37;;;;;;;10.97;100.00;99591.66;5052718;28;20450;-70
2024/03/30 00:53:13;;;;;;;3.20;0.90;;;;;;;10.97;100.00;99569.97;5052489;28;20553;-70
2024/03/30 00:55:40;;;;;;;3.67;1.50;;;;;;;10.93;100.00;99579.88;5052907;28;20250;-70
2024/03/30 00:58:07;;;;;;;3.00;0.93;;;;;;;10.85;100.00;99578.84;5053056;28;20525;-70
2024/03/30 01:00:33;;;;;;;2.73;0.83;;;;;;;10.81;100.00;99583.31;5053341;28;20438;-70
2024/03/30 01:02:59;;;;;;;4.63;1.53;;;;;;;10.76;100.00;99581.59;5053232;28;20481;-70
2024/03/30 01:05:25;;;;;;;2.70;1.10;;;;;;;10.72;100.00;99571.72;5052563;28;20630;-69
2024/03/30 01:07:52;;;;;;;2.70;0.90;;;;;;;10.63;100.00;99582.63;5053605;28;20476;-69
2024/03/30 01:10:17;;;;;;;2.80;0.90;;;;;;;10.56;100.00;99569.56;5053483;28;20204;-69
2024/03/30 01:12:46;;;;;;;2.90;1.10;;;;;;;10.53;100.00;99572.13;5052904;28;20550;-69
2024/03/30 01:15:12;;;;;;;3.00;0.80;;;;;;;10.51;100.00;99568.97;5052530;28;20580;-69
2024/03/30 01:17:39;;;;;;;2.60;0.87;;;;;;;10.45;100.00;99567.56;5053545;28;20848;-69
2024/03/30 01:20:06;;;;;;;3.40;1.20;;;;;;;10.37;100.00;99568.38;5054484;28;20440;-69
2024/03/30 01:22:33;;;;;;;3.03;1.20;;;;;;;10.30;100.00;99563.47;5054084;28;20462;-69
2024/03/30 01:24:59;;;;;;;2.73;0.90;;;;;;;10.19;100.00;99563.00;5054122;28;20443;-69
2024/03/30 01:27:28;;;;;;;2.40;0.70;;;;;;;10.16;100.00;99565.56;5067242;22;20486;-69
2024/03/30 01:29:56;;;;;;;3.63;1.20;;;;;;;10.13;100.00;99561.56;5052346;28;20423;-69
2024/03/30 01:32:24;;;;;;;3.67;1.00;;;;;;;10.11;100.00;99569.22;5053416;28;20536;-69
2024/03/30 01:34:50;;;;;;;3.33;1.17;;;;;;;10.00;100.00;99565.28;5053257;28;20509;-70
2024/03/30 01:37:17;;;;;;;3.70;0.90;;;;;;;10.04;100.00;99571.63;5052373;28;20442;-70
2024/03/30 01:39:43;;;;;;;2.40;0.73;;;;;;;9.96;100.00;99567.03;5052957;28;20537;-70
2024/03/30 01:42:10;;;;;;;2.80;0.50;;;;;;;9.86;100.00;99565.47;5052822;28;20525;-70
2024/03/30 01:44:35;;;;;;;8.57;1.03;;;;;;;9.75;100.00;99569.63;5052589;28;20286;-70
2024/03/30 01:47:04;;;;;;;2.40;0.83;;;;;;;9.66;100.00;99566.94;5052569;28;20564;-69
2024/03/30 01:49:30;;;;;;;2.77;0.80;;;;;;;9.59;100.00;99569.31;5052324;28;20735;-69
2024/03/30 01:52:01;;;;;;;2.67;0.73;;;;;;;9.54;100.00;99572.19;5052594;28;20524;-69
2024/03/30 01:54:28;;;;;;;3.00;0.90;;;;;;;9.49;100.00;99566.94;5052639;28;20438;-69
2024/03/30 01:56:57;;;;;;;2.73;0.93;;;;;;;9.48;100.00;99571.56;5052172;28;20868;-69
2024/03/30 01:59:23;;;;;;;3.10;1.20;;;;;;;9.41;100.00;99565.81;5045431;28;20522;-69
2024/03/30 02:01:53;;;;;;;3.03;0.80;;;;;;;9.42;100.00;99574.72;5052453;28;20448;-69
2024/03/30 02:04:23;;;;;;;2.70;1.10;;;;;;;9.44;100.00;99557.09;5052716;28;20450;-69
2024/03/30 02:06:50;;;;;;;2.27;0.70;;;;;;;9.45;100.00;99555.97;5036144;28;20471;-69
2024/03/30 02:09:17;;;;;;;2.97;0.90;;;;;;;9.52;100.00;99558.19;5036558;28;20542;-69
2024/03/30 02:11:44;;;;;;;3.13;1.00;;;;;;;9.51;100.00;99548.47;5052577;28;20446;-69
2024/03/30 02:14:10;;;;;;;3.50;0.87;;;;;;;9.48;100.00;99558.03;5055625;28;20838;-69
2024/03/30 02:16:38;;;;;;;2.57;0.83;;;;;;;9.48;100.00;99554.53;5055437;28;20522;-69
2024/03/30 02:19:04;;;;;;;4.33;1.57;;;;;;;9.46;100.00;99545.94;5055589;28;20486;-69
2024/03/30 02:21:33;;;;;;;2.30;0.70;;;;;;;9.44;100.00;99548.19;5056060;28;20437;-68
2024/03/30 02:24:00;;;;;;;2.63;0.83;;;;;;;9.46;100.00;99545.94;5056175;28;20462;-70
2024/03/30 02:26:26;;;;;;;2.40;0.83;;;;;;;9.42;100.00;99542.28;5053370;28;20804;-69
2024/03/30 02:28:53;;;;;;;3.67;1.27;;;;;;;9.38;100.00;99544.03;5055417;28;20537;-69
2024/03/30 02:31:21;;;;;;;3.20;0.97;;;;;;;9.33;100.00;99553.88;5055359;28;20446;-69
2024/03/30 02:33:47;;;;;;;3.37;1.00;;;;;;;9.30;100.00;99556.47;5041195;28;20490;-69
2024/03/30 02:36:16;;;;;;;2.80;0.87;;;;;;;9.30;100.00;99562.66;5043624;28;20435;-69
2024/03/30 02:38:42;;;;;;;2.90;1.00;;;;;;;9.31;100.00;99553.44;5055547;28;20435;-69
2024/03/30 02:41:10;;;;;;;4.47;0.83;;;;;;;9.29;100.00;99557.53;5055382;28;20533;-69
2024/03/30 02:43:35;;;;;;;2.70;1.00;;;;;;;9.26;100.00;99550.88;5055278;28;20727;-69
2024/03/30 02:46:02;;;;;;;4.20;1.33;;;;;;;9.24;100.00;99549.59;5055122;28;20506;-69
2024/03/30 02:48:27;;;;;;;2.80;0.70;;;;;;;9.19;100.00;99541.66;5055086;28;20295;-69
2024/03/30 02:50:54;;;;;;;2.90;0.97;;;;;;;9.10;100.00;99539.75;5055501;28;20973;-69
2024/03/30 02:53:19;;;;;;;2.70;1.10;;;;;;;9.05;100.00;99548.00;5055076;28;20254;-69
2024/03/30 02:55:46;;;;;;;4.37;1.10;;;;;;;8.97;100.00;99548.78;5055017;28;20465;-69
2024/03/30 02:58:13;;;;;;;2.37;0.70;;;;;;;8.86;100.00;99549.41;5054823;28;20733;-69
2024/03/30 03:00:40;;;;;;;2.73;0.80;;;;;;;8.83;100.00;99546.22;5054231;28;20442;-69
2024/03/30 03:03:06;;;;;;;3.27;1.00;;;;;;;8.78;100.00;99562.56;5054883;28;20564;-69
2024/03/30 03:05:32;;;;;;;3.37;1.60;;;;;;;8.73;100.00;99559.22;5055235;28;21013;-69
2024/03/30 03:07:58;;;;;;;4.40;1.43;;;;;;;8.76;100.00;99572.88;5054165;28;20290;-69
2024/03/30 03:10:24;;;;;;;2.77;0.90;;;;;;;8.76;100.00;99569.38;5054582;28;20478;-69
2024/03/30 03:12:50;;;;;;;2.97;1.10;;;;;;;8.74;100.00;99564.31;5054943;28;20255;-69
2024/03/30 03:15:18;;;;;;;3.33;1.13;;;;;;;8.76;100.00;99562.06;5055047;28;20883;-69
2024/03/30 03:17:44;;;;;;;2.57;0.63;;;;;;;8.79;100.00;99569.56;5053712;28;20597;-69
2024/03/30 03:20:11;;;;;;;3.13;1.20;;;;;;;8.79;100.00;99560.66;5055121;28;20478;-69
2024/03/30 03:22:37;;;;;;;5.30;1.20;;;;;;;8.76;100.00;99559.38;5054672;28;20258;-69
2024/03/30 03:25:05;;;;;;;2.70;0.83;;;;;;;8.78;100.00;99553.69;5054603;28;20500;-70
2024/03/30 03:27:31;;;;;;;2.40;0.60;;;;;;;8.76;100.00;99553.97;5050408;28;20490;-70
2024/03/30 03:29:57;;;;;;;2.53;1.00;;;;;;;8.81;100.00;99544.97;5034697;28;20444;-70
2024/03/30 03:32:25;;;;;;;4.53;1.13;;;;;;;8.71;100.00;99551.44;5044135;28;20216;-69
2024/03/30 03:34:52;;;;;;;3.53;1.10;;;;;;;8.65;100.00;99550.00;5034613;28;20450;-70
2024/03/30 03:37:17;;;;;;;2.67;0.90;;;;;;;8.65;100.00;99544.59;5045195;28;20512;-69
2024/03/30 03:39:44;;;;;;;2.53;0.80;;;;;;;8.67;100.00;99545.06;5054160;28;20876;-69
2024/03/30 03:42:10;;;;;;;2.50;0.73;;;;;;;8.65;100.00;99541.91;5054502;28;20262;-69
2024/03/30 03:44:36;;;;;;;4.40;1.00;;;;;;;8.52;100.00;99540.13;5053969;28;20466;-69
2024/03/30 03:47:02;;;;;;;2.93;1.03;;;;;;;8.55;100.00;99529.50;5053904;28;20226;-69
2024/03/30 03:49:30;;;;;;;2.67;0.90;;;;;;;8.57;100.00;99526.47;5053796;28;20537;-69
2024/03/30 03:51:57;;;;;;;2.90;0.83;;;;;;;8.51;100.00;99528.53;5054429;28;20204;-69
2024/03/30 03:54:23;;;;;;;3.97;1.50;;;;;;;8.42;100.00;99532.31;5053884;28;20442;-69
2024/03/30 03:56:49;;;;;;;2.80;1.10;;;;;;;8.34;100.00;99539.22;5053972;28;20430;-69
2024/03/30 03:59:15;;;;;;;3.00;1.03;;;;;;;8.25;100.00;99547.28;5054559;28;21011;-69
2024/03/30 04:01:41;;;;;;;2.80;0.77;;;;;;;8.31;100.00;99547.94;5053848;28;20664;-69
2024/03/30 04:04:08;;;;;;;2.60;1.00;;;;;;;8.36;100.00;99553.19;5054042;28;20499;-69
2024/03/30 04:06:35;;;;;;;2.20;0.60;;;;;;;8.32;100.00;99544.94;5053810;28;20230;-69
2024/03/30 04:09:02;;;;;;;2.50;1.00;;;;;;;8.25;100.00;99555.38;5053807;28;20541;-69
2024/03/30 04:11:27;;;;;;;4.93;1.53;;;;;;;8.29;100.00;99544.75;5053283;28;20446;-69
2024/03/30 04:13:54;;;;;;;3.00;0.83;;;;;;;8.36;100.00;99558.59;5053415;28;20477;-69
2024/03/30 04:16:21;;;;;;;3.13;1.10;;;;;;;8.35;100.00;99557.78;5053376;28;20238;-69
2024/03/30 04:18:47;;;;;;;3.13;0.90;;;;;;;8.30;100.00;99554.44;5052072;28;20446;-69
2024/03/30 04:21:13;;;;;;;2.70;0.90;;;;;;;8.32;100.00;99557.63;5052721;28;20971;-69
2024/03/30 04:23:42;;;;;;;3.30;1.10;;;;;;;8.24;100.00;99559.19;5052886;28;20545;-69
2024/03/30 04:26:10;;;;;;;2.80;0.93;;;;;;;8.25;100.00;99558.06;5053404;28;20235;-69
2024/03/30 04:28:36;;;;;;;3.03;1.00;;;;;;;8.28;100.00;99557.47;5053157;28;20454;-69
2024/03/30 04:31:04;;;;;;;2.47;0.80;;;;;;;8.28;100.00;99543.97;5053150;28;20422;-69
2024/03/30 04:33:30;;;;;;;3.93;1.00;;;;;;;8.33;100.00;99548.44;5052942;28;20519;-69
2024/03/30 04:35:57;;;;;;;4.27;1.23;;;;;;;8.31;100.00;99561.41;5047004;28;20430;-69
2024/03/30 04:38:24;;;;;;;2.73;1.03;;;;;;;8.23;100.00;99557.56;5033441;28;20493;-69
2024/03/30 04:40:59;;;;;;;2.80;0.87;;;;;;;8.19;100.00;99553.09;5038724;28;20425;-69
2024/03/30 04:43:26;;;;;;;2.60;1.10;;;;;;;8.22;100.00;99545.19;5053378;28;20497;-69
2024/03/30 04:45:53;;;;;;;3.83;1.00;;;;;;;8.25;100.00;99551.88;5052483;28;20482;-69
2024/03/30 04:48:20;;;;;;;3.83;1.77;;;;;;;8.20;100.00;99552.81;5053444;28;20446;-69
2024/03/30 04:50:46;;;;;;;5.60;1.70;;;;;;;8.25;100.00;99558.06;5053106;28;20440;-69
2024/03/30 04:53:17;;;;;;;3.30;1.30;;;;;;;8.30;100.00;99560.63;5053247;28;20524;-69
2024/03/30 04:55:50;;;;;;;3.73;0.97;;;;;;;8.26;100.00;99559.66;5053563;28;20510;-69
2024/03/30 04:58:19;;;;;;;2.60;0.80;;;;;;;8.20;100.00;99552.03;5052748;28;20423;-69
2024/03/30 05:00:44;;;;;;;3.07;0.97;;;;;;;8.18;100.00;99544.22;5052762;28;20453;-69
2024/03/30 05:03:11;;;;;;;4.77;1.30;;;;;;;8.22;100.00;99547.91;5053132;28;20542;-69
2024/03/30 05:05:37;;;;;;;3.10;0.97;;;;;;;8.20;100.00;99555.50;5052549;28;20753;-70
2024/03/30 05:08:04;;;;;;;3.37;1.10;;;;;;;8.25;100.00;99547.28;5053015;28;20466;-69
2024/03/30 05:10:30;;;;;;;2.93;1.00;;;;;;;8.24;100.00;99545.69;5052926;28;20286;-69
2024/03/30 05:12:56;;;;;;;2.60;0.90;;;;;;;8.25;100.00;99536.50;5052869;28;20545;-69
2024/03/30 05:15:23;;;;;;;2.67;0.97;;;;;;;8.34;100.00;99539.22;5050222;28;20203;-69
2024/03/30 05:17:50;;;;;;;5.57;1.63;;;;;;;8.35;100.00;99532.72;5051830;28;20438;-69
2024/03/30 05:23:03;;;;;;;2.83;0.80;;;;;;;8.56;100.00;99541.88;5043115;28;20537;-69
2024/03/30 05:25:29;;;;;;;3.83;1.47;;;;;;;8.72;100.00;99544.13;5048542;28;20445;-69
2024/03/30 05:27:55;;;;;;;4.10;1.53;;;;;;;8.81;100.00;99540.34;5046879;28;20833;-69
2024/03/30 05:30:23;;;;;;;3.60;1.20;;;;;;;8.91;100.00;99533.06;5045821;28;20686;-70
2024/03/30 05:32:50;;;;;;;2.60;0.73;;;;;;;9.07;100.00;99537.69;5041932;28;20458;-67
2024/03/30 05:35:16;;;;;;;3.07;0.93;;;;;;;9.19;100.00;99541.66;5044063;28;20970;-68
2024/03/30 05:37:44;;;;;;;2.67;0.90;;;;;;;9.32;100.00;99538.78;5033373;28;20435;-68
2024/03/30 05:40:10;;;;;;;3.30;1.40;;;;;;;9.39;100.00;99534.84;5034599;28;20526;-69
2024/03/30 05:42:37;;;;;;;3.50;0.90;;;;;;;9.48;100.00;99520.19;5055743;28;20468;-69
2024/03/30 05:45:04;;;;;;;2.90;0.83;;;;;;;9.57;100.00;99517.50;5051249;28;20567;-69
2024/03/30 05:47:32;;;;;;;2.97;1.17;;;;;;;9.65;100.00;99513.97;5053689;28;20482;-69
2024/03/30 05:49:58;;;;;;;2.30;0.73;;;;;;;9.71;100.00;99512.69;5056160;28;20540;-69
2024/03/30 05:52:24;;;;;;;3.50;1.40;;;;;;;9.75;100.00;99520.94;5055905;28;20544;-69
2024/03/30 05:54:50;;;;;;;8.23;1.17;;;;;;;9.79;100.00;99517.28;5056258;28;20286;-70
2024/03/30 05:57:17;;;;;;;3.33;1.27;;;;;;;9.88;100.00;99524.59;5056004;28;20521;-70
2024/03/30 05:59:42;;;;;;;3.10;0.80;;;;;;;9.93;100.00;99521.69;5056806;28;20236;-70
2024/03/30 06:02:09;;;;;;;3.33;1.20;;;;;;;10.03;100.00;99518.63;5043298;28;20478;-69
2024/03/30 06:04:36;;;;;;;2.60;0.90;;;;;;;10.13;100.00;99520.19;5052806;28;20204;-69
2024/03/30 06:07:08;;;;;;;4.00;1.50;;;;;;;10.22;100.00;99519.03;5055606;28;20517;-69
2024/03/30 06:09:34;;;;;;;3.30;0.97;;;;;;;10.32;100.00;99526.06;5055643;28;20921;-69
2024/03/30 06:12:00;;;;;;;4.13;1.40;;;;;;;10.33;100.00;99519.53;5055842;28;20529;-69
2024/03/30 06:14:26;;;;;;;4.83;1.27;;;;;;;10.38;100.00;99521.25;5056030;28;20537;-69
2024/03/30 06:16:53;;;;;;;2.80;1.10;;;;;;;10.39;100.00;99523.63;5062306;28;20525;-69
2024/03/30 06:19:19;;;;;;;4.20;1.40;;;;;;;10.41;100.00;99520.59;5055611;28;20192;-69
2024/03/30 06:21:47;;;;;;;3.40;1.47;;;;;;;10.39;100.00;99522.81;5055967;28;20445;-69
2024/03/30 06:24:12;;;;;;;2.77;0.97;;;;;;;10.43;100.00;99519.13;5056628;28;20220;-69
2024/03/30 06:26:39;;;;;;;3.33;1.17;;;;;;;10.46;100.00;99521.22;5055533;28;20565;-69
2024/03/30 06:29:05;;;;;;;4.40;1.50;;;;;;;10.51;100.00;99514.81;5055097;28;20207;-69
2024/03/30 06:31:31;;;;;;;4.17;1.83;;;;;;;10.59;100.00;99519.38;5055581;28;20445;-69
2024/03/30 06:33:58;;;;;;;3.03;1.30;;;;;;;10.67;100.00;99521.25;5055670;28;20311;-69
2024/03/30 06:36:25;;;;;;;2.67;1.03;;;;;;;10.74;100.00;99521.53;5055419;28;20451;-69
2024/03/30 06:38:52;;;;;;;3.83;1.40;;;;;;;10.81;100.00;99515.59;5055251;28;20488;-69
2024/03/30 06:44:03;;;;;;;3.50;1.27;;;;;;;10.98;100.00;99515.47;5055243;28;21008;-69
2024/03/30 06:46:29;;;;;;;3.70;1.57;;;;;;;11.08;100.00;99525.13;5055184;28;20568;-69
2024/03/30 06:48:55;;;;;;;3.83;1.50;;;;;;;11.19;100.00;99528.22;5054595;28;20947;-69
2024/03/30 06:51:22;;;;;;;3.33;1.07;;;;;;;11.24;100.00;99533.44;5055956;28;20532;-69
2024/03/30 06:53:48;;;;;;;3.50;1.30;;;;;;;11.31;100.00;99533.72;5055354;28;20311;-69
2024/03/30 06:56:15;;;;;;;3.80;1.63;;;;;;;11.39;100.00;99537.50;5055159;28;20441;-69
2024/03/30 06:58:42;;;;;;;3.03;1.20;;;;;;;11.45;100.00;99547.00;5054479;28;20439;-69
2024/03/30 07:01:09;;;;;;;3.43;1.37;;;;;;;11.52;100.00;99545.34;5055281;28;20441;-69
2024/03/30 07:03:35;;;;;;;4.00;1.43;;;;;;;11.55;99.75;99536.53;5054743;28;20462;-69
2024/03/30 07:06:01;;;;;;;4.10;1.70;;;;;;;11.67;99.00;99530.34;5055382;28;20438;-69
2024/03/30 07:08:27;;;;;;;4.67;1.80;;;;;;;11.78;98.25;99525.31;5054964;28;20531;-69
2024/03/30 07:10:53;;;;;;;3.37;1.30;;;;;;;11.92;97.97;99528.53;5055080;28;20242;-68
2024/03/30 07:13:21;;;;;;;4.10;1.50;;;;;;;11.99;97.00;99528.75;5054532;28;20998;-69
2024/03/30 07:15:47;;;;;;;3.90;1.97;;;;;;;12.10;95.39;99534.56;5055073;28;20294;-69
2024/03/30 07:18:14;;;;;;;6.23;1.70;;;;;;;12.18;94.31;99536.41;5054678;28;20442;-73
2024/03/30 07:20:40;;;;;;;4.67;2.37;;;;;;;12.27;93.30;99534.38;5055111;28;20867;-70
2024/03/30 07:23:07;;;;;;;3.83;1.70;;;;;;;12.35;93.22;99538.91;5055284;28;20459;-70
2024/03/30 07:25:36;;;;;;;5.10;1.80;;;;;;;12.47;92.81;99531.88;5055227;28;20291;-71
2024/03/30 07:28:03;;;;;;;5.80;1.70;;;;;;;12.58;92.33;99533.81;5064362;22;21004;-64
2024/03/30 07:30:30;;;;;;;5.13;1.90;;;;;;;12.73;91.48;99534.25;5036339;28;20442;-66
2024/03/30 07:32:57;;;;;;;3.37;1.23;;;;;;;12.87;91.42;99535.47;5035741;28;20562;-65
2024/03/30 07:35:22;;;;;;;5.37;2.37;;;;;;;13.02;91.44;99533.22;5046115;28;20886;-67
2024/03/30 07:37:49;;;;;;;3.67;1.73;;;;;;;13.13;91.69;99509.81;5035246;28;20471;-66
2024/03/30 07:40:15;;;;;;;3.83;1.77;;;;;;;13.20;91.07;99517.41;5035241;28;20232;-65
2024/03/30 07:42:41;;;;;;;4.00;1.53;;;;;;;13.34;90.90;99523.28;5034745;28;20491;-66
2024/03/30 07:45:07;;;;;;;6.70;2.20;;;;;;;13.43;90.05;99518.47;5041239;28;20291;-67
2024/03/30 07:47:37;;;;;;;5.67;1.90;;;;;;;13.57;88.97;99526.25;5053204;28;21024;-70
2024/03/30 07:50:03;;;;;;;3.97;1.50;;;;;;;13.69;88.64;99525.41;5054364;28;20871;-69
2024/03/30 07:52:30;;;;;;;3.03;1.23;;;;;;;13.76;88.51;99520.13;5053582;28;20466;-68
2024/03/30 07:54:55;;;;;;;4.13;1.77;;;;;;;13.84;88.19;99521.91;5052324;28;20496;-69
2024/03/30 07:57:23;;;;;;;4.90;2.03;;;;;;;13.93;87.91;99521.75;5042469;28;20438;-66
2024/03/30 07:59:49;;;;;;;5.37;1.80;;;;;;;14.00;86.93;99521.94;5054335;28;20216;-68
2024/03/30 08:02:16;;;;;;;5.83;1.93;;;;;;;14.10;85.93;99515.97;5052025;28;20663;-64
2024/03/30 08:04:43;;;;;;;4.00;1.27;;;;;;;14.21;85.57;99510.78;5053971;28;20204;-64
2024/03/30 08:07:09;;;;;;;3.33;1.57;;;;;;;14.28;84.70;99514.47;5052276;28;20559;-64
2024/03/30 08:09:35;;;;;;;4.63;1.73;;;;;;;14.35;83.78;99520.09;5043865;28;20526;-64
2024/03/30 08:12:02;;;;;;;4.70;1.90;;;;;;;14.42;83.07;99513.25;5033788;28;20446;-64
2024/03/30 08:14:28;;;;;;;12.57;1.83;;;;;;;14.48;83.19;99506.41;5033926;28;20814;-67
2024/03/30 08:16:54;;;;;;;3.70;1.50;;;;;;;14.57;82.56;99507.81;5038398;28;20517;-64
2024/03/30 08:19:20;;;;;;;5.93;2.20;;;;;;;14.66;81.77;99512.28;5039404;28;20215;-65
2024/03/30 08:21:48;;;;;;;6.93;2.07;;;;;;;14.71;80.24;99504.63;5039033;28;20431;-65
2024/03/30 08:24:14;;;;;;;12.33;1.47;;;;;;;14.82;79.29;99504.84;5040142;28;20299;-64
2024/03/30 08:26:40;;;;;;;2.80;1.10;;;;;;;14.88;78.79;99506.94;5049399;28;20569;-65
2024/03/30 08:29:07;;;;;;;4.27;1.70;;;;;;;14.99;79.09;99506.38;5047893;28;20604;-65
2024/03/30 08:31:33;;;;;;;3.50;1.30;;;;;;;15.07;79.84;99510.84;5051892;28;20480;-65
2024/03/30 08:33:59;;;;;;;3.07;1.10;;;;;;;15.20;79.51;99512.28;5051690;28;20462;-66
2024/03/30 08:36:26;;;;;;;3.73;1.60;;;;;;;15.35;77.98;99516.88;5052974;28;20511;-65
2024/03/30 08:38:53;;;;;;;3.57;1.30;;;;;;;15.44;77.59;99505.75;5038672;28;20208;-65
2024/03/30 08:41:19;;;;;;;4.53;1.40;;;;;;;15.58;76.97;99505.22;5041744;28;20443;-65
2024/03/30 08:43:45;;;;;;;4.73;1.40;;;;;;;15.69;76.32;99500.00;5051909;28;20454;-66
2024/03/30 08:46:11;;;;;;;4.53;1.70;;;;;;;15.73;75.93;99503.59;5052777;28;20533;-65
2024/03/30 08:48:37;;;;;;;3.43;1.23;;;;;;;15.83;75.91;99500.28;5036686;28;20274;-65
2024/03/30 08:51:04;;;;;;;4.10;2.20;;;;;;;15.91;76.79;99501.19;5046349;28;20439;-65
2024/03/30 08:53:29;;;;;;;3.77;1.20;;;;;;;15.99;74.70;99506.41;5032559;28;20731;-65
2024/03/30 08:56:03;;;;;;;3.83;1.90;;;;;;;16.12;74.56;99496.88;5033851;28;20518;-65
2024/03/30 08:58:30;;;;;;;4.07;1.30;;;;;;;16.19;74.42;99501.66;5032644;28;20204;-68
2024/03/30 09:00:57;;;;;;;3.33;1.10;;;;;;;16.25;73.88;99500.22;5037164;28;20462;-66
2024/03/30 09:03:23;;;;;;;5.20;1.70;;;;;;;16.39;73.31;99505.91;5041333;28;20542;-65
2024/03/30 09:05:49;;;;;;;4.73;1.80;;;;;;;16.47;72.51;99506.00;5037300;28;20521;-66
2024/03/30 09:08:15;;;;;;;4.30;1.60;;;;;;;16.50;71.77;99506.06;5038819;28;20223;-66
2024/03/30 09:10:42;;;;;;;3.20;1.13;;;;;;;16.58;71.61;99512.44;5043256;28;20530;-64
2024/03/30 09:13:09;;;;;;;3.60;1.37;;;;;;;16.67;71.09;99507.50;5040342;28;20293;-66
2024/03/30 09:15:36;;;;;;;3.33;1.20;;;;;;;16.71;72.02;99507.56;5048499;28;20450;-65
2024/03/30 09:18:02;;;;;;;3.03;1.17;;;;;;;16.78;70.09;99508.47;5053232;28;20934;-65
2024/03/30 09:20:29;;;;;;;3.77;1.50;;;;;;;16.80;68.28;99508.88;5049936;28;20561;-65
2024/03/30 09:22:55;;;;;;;3.63;1.30;;;;;;;16.94;69.78;99508.28;5039176;28;20455;-65
2024/03/30 09:25:21;;;;;;;3.20;1.40;;;;;;;17.05;70.03;99511.97;5039023;28;20791;-66
2024/03/30 09:27:47;;;;;;;7.73;2.20;;;;;;;17.17;68.92;99510.94;5016565;28;1120451;-64
2024/03/30 09:30:15;;;;;;;5.00;1.60;;;;;;;17.23;67.49;99509.47;5048718;28;20228;-65
2024/03/30 09:32:41;;;;;;;6.57;2.33;;;;;;;17.15;66.92;99505.06;5038855;28;20224;-64
2024/03/30 09:35:08;;;;;;;3.73;1.50;;;;;;;17.06;67.36;99502.59;5042560;28;20545;-64
2024/03/30 09:37:34;;;;;;;6.00;2.00;;;;;;;17.06;67.47;99507.28;5046524;28;20203;-65
2024/03/30 09:40:01;;;;;;;5.53;1.60;;;;;;;17.09;67.58;99506.56;5047605;28;20442;-66
2024/03/30 09:42:30;;;;;;;8.90;2.30;;;;;;;17.13;67.93;99507.38;5041172;28;20466;-66
2024/03/30 09:44:57;;;;;;;13.87;2.17;;;;;;;17.17;66.94;99507.41;5039326;28;20443;-64
2024/03/30 09:47:26;;;;;;;5.97;2.20;;;;;;;17.22;66.81;99504.34;5056760;28;20851;-64
2024/03/30 09:49:53;;;;;;;8.13;3.33;;;;;;;17.31;67.81;99497.44;5051135;28;20521;-64
2024/03/30 09:52:20;;;;;;;9.13;1.87;;;;;;;17.54;67.37;99499.25;5049928;28;20545;-64
2024/03/30 09:54:50;;;;;;;7.00;2.17;;;;;;;17.76;66.03;99497.56;5056958;28;20446;-65
2024/03/30 09:57:16;;;;;;;5.17;1.50;;;;;;;17.92;64.44;99508.28;5037674;28;20870;-64
2024/03/30 09:59:44;;;;;;;11.73;2.13;;;;;;;18.09;63.63;99500.22;5036373;28;20489;-64
2024/03/30 10:02:10;;;;;;;6.67;2.33;;;;;;;18.31;62.03;99495.69;5037661;28;20435;-65
2024/03/30 10:04:38;;;;;;;6.33;1.90;;;;;;;18.49;61.73;99497.78;5038065;28;20441;-65
2024/03/30 10:07:11;;;;;;;8.07;2.20;;;;;;;18.70;61.21;99495.22;5051517;28;20885;-64
2024/03/30 10:09:37;;;;;;;12.37;2.20;;;;;;;18.77;61.41;99489.78;5048243;28;20427;-64
2024/03/30 10:12:11;;;;;;;8.20;2.30;;;;;;;18.91;60.61;99489.09;5056405;28;20529;-64
2024/03/30 10:14:44;;;;;;;7.37;1.43;;;;;;;19.11;60.59;99489.56;5036914;28;20834;-64
2024/03/30 10:17:10;;;;;;;5.23;1.47;;;;;;;19.33;59.73;99482.97;5042042;28;20514;-64
2024/03/30 10:19:40;;;;;;;12.80;2.37;;;;;;;19.48;57.68;99469.28;5039759;28;20447;-64
2024/03/30 10:22:06;;;;;;;7.97;1.77;;;;;;;19.60;58.22;99471.69;5038768;28;20474;-64
2024/03/30 10:24:34;;;;;;;8.83;1.83;;;;;;;19.69;58.66;99479.56;5056103;28;20920;-64
2024/03/30 10:26:59;;;;;;;5.60;1.73;;;;;;;19.80;57.28;99470.19;5052051;28;20224;-64
2024/03/30 10:29:26;;;;;;;12.90;2.17;;;;;;;19.97;57.20;99479.63;5035938;28;21018;-64
2024/03/30 10:31:52;;;;;;;6.50;2.10;;;;;;;20.11;57.07;99481.59;5037480;28;20227;-64
2024/03/30 10:34:18;;;;;;;12.60;1.87;;;;;;;20.15;55.56;99485.91;5047104;28;20797;-65
2024/03/30 10:36:47;;;;;;;11.97;2.70;;;;;;;20.30;53.54;99486.69;5036803;28;20208;-65
2024/03/30 10:39:14;;;;;;;5.67;1.80;;;;;;;20.35;53.97;99486.28;5047246;28;20431;-65
2024/03/30 10:41:41;;;;;;;20.03;3.20;;;;;;;20.40;55.28;99477.63;5047756;28;20518;-65
2024/03/30 10:44:08;;;;;;;21.27;3.80;;;;;;;20.53;52.21;99480.81;5049144;28;20489;-65
2024/03/30 10:46:33;;;;;;;12.40;2.07;;;;;;;20.65;50.99;99480.41;5055841;28;20528;-67
2024/03/30 10:49:00;;;;;;;16.90;3.50;;;;;;;20.87;51.36;99470.13;5050603;28;20565;-64
2024/03/30 10:51:27;;;;;;;24.03;3.67;;;;;;;21.14;53.17;99478.69;5051415;28;20192;-64
2024/03/30 10:54:04;;;;;;;13.40;2.63;;;;;;;21.35;51.37;99471.53;5036181;28;20517;-64
2024/03/30 10:56:30;;;;;;;10.87;2.63;;;;;;;21.46;50.33;99472.25;5035976;28;20518;-66
2024/03/30 10:59:00;;;;;;;19.07;2.63;;;;;;;21.60;49.97;99477.72;5039271;28;20530;-66
2024/03/30 11:01:28;;;;;;;13.93;1.93;;;;;;;21.80;49.70;99479.94;5052075;28;20632;-66
2024/03/30 11:03:56;;;;;;;16.63;2.87;;;;;;;21.94;49.19;99468.81;5041731;28;20455;-66
2024/03/30 11:06:22;;;;;;;19.37;2.63;;;;;;;22.14;49.08;99463.56;5035382;28;20526;-66
2024/03/30 11:08:50;;;;;;;13.70;2.37;;;;;;;22.28;49.19;99462.66;5035061;28;20474;-66
2024/03/30 11:11:17;;;;;;;27.33;2.60;;;;;;;22.49;48.71;99464.41;5036388;28;20428;-66
2024/03/30 11:13:44;;;;;;;5.77;1.90;;;;;;;22.70;48.59;99455.13;5043052;28;20474;-65
2024/03/30 11:16:12;;;;;;;29.10;3.20;;;;;;;22.82;46.62;99454.63;5049778;28;20467;-65
2024/03/30 11:18:46;;;;;;;11.60;2.90;;;;;;;22.95;46.81;99452.91;5054185;28;20446;-65
2024/03/30 11:21:18;;;;;;;13.23;2.10;;;;;;;23.19;46.98;99455.78;5035245;28;20433;-65
2024/03/30 11:23:56;;;;;;;11.90;2.73;;;;;;;23.48;45.78;99445.91;5035054;28;20932;-65
2024/03/30 11:26:24;;;;;;;6.27;2.00;;;;;;;24.00;45.18;99462.16;5035091;28;20514;-67
2024/03/30 11:28:58;;;;;;;12.80;3.07;;;;;;;24.48;44.26;99457.41;5034746;28;20853;-67
2024/03/30 11:31:31;;;;;;;12.73;2.83;;;;;;;24.97;42.60;99464.00;5040800;28;20509;-67
2024/03/30 11:34:04;;;;;;;13.37;2.40;;;;;;;25.30;42.34;99467.69;5039441;28;20455;-67
2024/03/30 11:36:37;;;;;;;16.20;3.23;;;;;;;25.52;40.82;99465.22;5034837;28;20430;-67